Time;durP1;ratioP1;P1;durP2;ratioP2;P2;SDS_P1;SDS_P2;PMS_P1;PMS_P2;Temp;Humidity;BMP_temperature;BMP_pressure;BME280_temperature;BME280_humidity;BME280_pressure;Samples;Min_cycle;Max_cycle;Signal;HPM_P1;HPM_P2
2022/08/17 00:01:25;;;;;;;8.75;2.75;;;;;;;10.65;72.72;100598.28;4994314;28;20034;-80
2022/08/17 00:03:52;;;;;;;8.35;2.83;;;;;;;10.64;72.88;100595.78;5026891;28;20093;-80
2022/08/17 00:06:26;;;;;;;8.70;2.50;;;;;;;10.58;73.03;100588.44;4991405;28;20052;-81
2022/08/17 00:08:57;;;;;;;8.07;2.63;;;;;;;10.56;73.21;100588.56;5000662;28;20061;-81
2022/08/17 00:11:32;;;;;;;6.47;3.15;;;;;;;10.52;73.42;100585.41;4990240;28;20022;-80
2022/08/17 00:14:10;;;;;;;6.00;2.22;;;;;;;10.50;73.68;100589.13;4992991;28;20041;-80
2022/08/17 00:16:40;;;;;;;8.77;2.72;;;;;;;10.46;73.98;100580.69;4986966;28;20448;-80
2022/08/17 00:19:08;;;;;;;5.97;2.65;;;;;;;10.46;74.04;100585.97;4993038;28;20053;-81
2022/08/17 00:21:37;;;;;;;7.80;2.75;;;;;;;10.46;74.36;100585.09;4992516;28;20042;-80
2022/08/17 00:24:03;;;;;;;7.50;2.80;;;;;;;10.43;74.49;100586.22;4969421;28;20500;-80
2022/08/17 00:26:29;;;;;;;6.93;2.67;;;;;;;10.39;74.49;100576.88;4996420;28;20047;-78
2022/08/17 00:28:55;;;;;;;11.07;2.80;;;;;;;10.38;75.02;100580.50;4979969;28;20500;-80
2022/08/17 00:31:22;;;;;;;8.00;2.80;;;;;;;10.39;75.00;100582.16;4973918;28;20374;-80
2022/08/17 00:33:48;;;;;;;8.05;2.75;;;;;;;10.38;74.83;100578.66;5003074;28;20551;-77
2022/08/17 00:36:15;;;;;;;11.70;2.83;;;;;;;10.38;75.11;100583.13;5001170;28;20523;-82
2022/08/17 00:38:42;;;;;;;12.73;2.80;;;;;;;10.38;75.19;100578.66;4956066;28;20583;-80
2022/08/17 00:41:13;;;;;;;9.30;2.63;;;;;;;10.40;75.17;100583.84;5026044;28;20118;-80
2022/08/17 00:43:46;;;;;;;6.20;2.40;;;;;;;10.40;75.17;100584.66;4993579;28;20034;-80
2022/08/17 00:46:22;;;;;;;7.85;2.72;;;;;;;10.36;75.71;100585.94;4989453;28;20038;-81
2022/08/17 00:48:48;;;;;;;6.45;2.53;;;;;;;10.36;75.63;100585.94;4992248;28;20444;-80
2022/08/17 00:51:42;;;;;;;8.88;3.63;;;;;;;10.34;76.12;100589.66;4998055;28;20512;-82
2022/08/17 00:54:26;;;;;;;11.20;3.38;;;;;;;10.34;76.01;100585.22;5009909;28;20038;-80
2022/08/17 00:57:05;;;;;;;9.82;2.58;;;;;;;10.33;75.94;100575.63;4992802;28;20396;-79
2022/08/17 00:59:37;;;;;;;7.15;3.55;;;;;;;10.33;76.25;100574.78;5010902;28;20452;-79
2022/08/17 01:02:05;;;;;;;4.93;3.00;;;;;;;10.34;76.43;100565.88;4993711;28;20043;-78
2022/08/17 01:04:32;;;;;;;6.18;2.88;;;;;;;10.33;76.29;100567.72;4965811;28;20583;-80
2022/08/17 01:07:01;;;;;;;8.48;2.50;;;;;;;10.31;76.77;100567.00;4982064;28;20046;-80
2022/08/17 01:09:26;;;;;;;9.57;2.88;;;;;;;10.27;77.17;100571.72;4992635;28;20053;-80
2022/08/17 01:11:52;;;;;;;6.50;2.72;;;;;;;10.24;77.37;100568.53;5026257;28;20035;-81
2022/08/17 01:14:23;;;;;;;8.70;2.50;;;;;;;10.24;77.19;100569.38;4962347;28;20070;-80
2022/08/17 01:16:52;;;;;;;8.52;2.85;;;;;;;10.24;77.14;100573.84;4942857;28;20476;-78
2022/08/17 01:19:23;;;;;;;10.60;3.20;;;;;;;10.23;77.48;100565.06;4986530;28;20092;-81
2022/08/17 01:21:57;;;;;;;8.25;2.97;;;;;;;10.22;77.67;100571.31;4986706;28;20068;-80
2022/08/17 01:24:22;;;;;;;8.70;2.58;;;;;;;10.16;77.70;100566.59;4973698;28;20110;-78
2022/08/17 01:26:48;;;;;;;6.20;2.22;;;;;;;10.14;78.11;100563.25;5010682;28;20086;-79
2022/08/17 01:29:15;;;;;;;9.55;2.95;;;;;;;10.12;78.51;100571.31;5012125;28;20045;-79
2022/08/17 01:31:46;;;;;;;9.77;2.70;;;;;;;10.13;78.51;100564.25;4976220;28;20062;-80
2022/08/17 01:34:14;;;;;;;10.55;2.80;;;;;;;10.13;78.70;100566.88;5009109;28;20030;-79
2022/08/17 01:36:43;;;;;;;9.80;2.88;;;;;;;10.11;78.53;100552.97;5023523;28;20166;-79
2022/08/17 01:39:25;;;;;;;11.35;2.63;;;;;;;10.10;79.11;100564.50;4988974;28;20038;-79
2022/08/17 01:42:00;;;;;;;11.27;3.00;;;;;;;10.08;79.38;100566.44;4964830;28;20475;-78
2022/08/17 01:44:26;;;;;;;7.57;2.45;;;;;;;10.07;80.29;100567.41;4981900;28;20036;-78
2022/08/17 01:46:52;;;;;;;8.13;2.75;;;;;;;10.07;79.61;100564.75;5001772;28;20481;-78
2022/08/17 01:49:18;;;;;;;6.25;2.78;;;;;;;10.08;79.98;100569.09;4982230;28;20039;-82
2022/08/17 01:51:44;;;;;;;6.63;2.35;;;;;;;10.10;80.11;100572.41;4977113;28;20034;-79
2022/08/17 01:54:13;;;;;;;11.60;3.08;;;;;;;10.10;80.66;100564.50;5007163;28;20432;-81
2022/08/17 01:56:42;;;;;;;7.50;3.13;;;;;;;10.07;80.78;100560.31;4970559;28;20196;-82
2022/08/17 01:59:09;;;;;;;5.97;2.55;;;;;;;10.04;80.99;100561.44;4987520;28;20097;-80
2022/08/17 02:01:35;;;;;;;9.82;2.90;;;;;;;10.03;81.35;100562.41;5009551;28;20386;-80
2022/08/17 02:04:03;;;;;;;8.90;2.58;;;;;;;10.05;81.26;100556.97;4973423;28;20392;-80
2022/08/17 02:06:31;;;;;;;6.90;2.67;;;;;;;10.04;81.11;100557.97;4978326;28;20141;-80
2022/08/17 02:08:58;;;;;;;8.73;2.53;;;;;;;10.01;81.43;100569.66;5000362;28;20492;-81
2022/08/17 02:11:23;;;;;;;12.40;3.83;;;;;;;9.98;81.86;100569.91;5014685;28;20042;-80
2022/08/17 02:13:51;;;;;;;8.38;2.90;;;;;;;9.97;81.39;100578.78;4988218;28;20053;-81
2022/08/17 02:16:18;;;;;;;6.03;2.35;;;;;;;9.95;81.96;100577.28;4990430;28;20433;-81
2022/08/17 02:18:45;;;;;;;7.10;2.53;;;;;;;9.91;82.11;100568.78;4974578;28;20030;-79
2022/08/17 02:21:12;;;;;;;9.50;2.55;;;;;;;9.86;82.46;100571.84;4968475;28;20449;-80
2022/08/17 02:23:42;;;;;;;6.50;2.30;;;;;;;9.86;82.69;100577.13;4943745;28;20030;-80
2022/08/17 02:26:08;;;;;;;4.18;2.10;;;;;;;9.81;83.61;100579.31;4989606;28;20411;-84
2022/08/17 02:28:34;;;;;;;7.97;2.13;;;;;;;9.80;84.03;100573.22;4986950;28;20029;-80
2022/08/17 02:31:05;;;;;;;7.90;3.50;;;;;;;9.79;84.06;100566.25;4992752;28;20037;-82
2022/08/17 02:33:31;;;;;;;5.60;2.42;;;;;;;9.77;83.78;100568.22;4998334;28;20428;-81
2022/08/17 02:35:57;;;;;;;9.57;2.80;;;;;;;9.78;84.03;100561.97;5020511;28;20034;-80
2022/08/17 02:38:23;;;;;;;8.32;2.40;;;;;;;9.80;83.84;100562.66;4990164;28;20066;-80
2022/08/17 02:40:49;;;;;;;6.55;2.88;;;;;;;9.79;83.92;100554.88;5006909;28;20030;-80
2022/08/17 02:43:15;;;;;;;10.00;2.63;;;;;;;9.78;83.99;100563.75;5005943;28;20053;-82
2022/08/17 02:45:41;;;;;;;7.75;2.70;;;;;;;9.78;84.28;100559.31;5000892;28;20423;-79
2022/08/17 02:48:06;;;;;;;7.10;2.55;;;;;;;9.77;84.27;100552.38;5011611;28;20038;-79
2022/08/17 02:50:33;;;;;;;8.18;3.00;;;;;;;9.78;84.27;100554.03;4994753;28;20078;-79
2022/08/17 02:52:58;;;;;;;6.47;2.55;;;;;;;9.80;84.45;100556.53;4993685;28;20141;-80
2022/08/17 02:55:31;;;;;;;6.30;2.50;;;;;;;9.80;85.11;100559.19;4987906;28;20038;-80
2022/08/17 02:57:57;;;;;;;10.82;2.42;;;;;;;9.79;85.01;100553.06;4985474;28;20050;-79
2022/08/17 03:00:32;;;;;;;10.32;2.58;;;;;;;9.80;85.01;100557.38;4988941;28;20124;-81
2022/08/17 03:03:00;;;;;;;12.73;2.57;;;;;;;9.77;85.67;100552.38;4986325;28;20046;-78
2022/08/17 03:05:28;;;;;;;9.98;2.58;;;;;;;9.81;85.75;100555.56;5000971;28;20054;-79
2022/08/17 03:07:54;;;;;;;7.38;2.97;;;;;;;9.82;85.80;100551.13;4981786;28;20034;-79
2022/08/17 03:10:21;;;;;;;9.07;2.22;;;;;;;9.84;86.08;100554.47;5021208;28;20110;-79
2022/08/17 03:12:47;;;;;;;6.05;2.72;;;;;;;9.86;85.83;100557.81;4985238;28;20492;-81
2022/08/17 03:15:16;;;;;;;8.85;2.67;;;;;;;9.86;86.06;100557.81;5012302;28;20172;-81
2022/08/17 03:17:42;;;;;;;13.15;2.35;;;;;;;9.88;86.09;100572.53;4974377;28;20049;-80
2022/08/17 03:20:09;;;;;;;11.73;3.10;;;;;;;9.88;86.28;100569.06;4981882;28;20037;-80
2022/08/17 03:22:38;;;;;;;9.80;2.92;;;;;;;9.88;85.91;100566.41;4999220;28;20034;-80
2022/08/17 03:25:05;;;;;;;11.65;2.67;;;;;;;9.89;85.98;100574.19;5013883;28;20404;-80
2022/08/17 03:27:31;;;;;;;10.07;2.70;;;;;;;9.90;86.12;100585.59;5011672;28;20034;-81
2022/08/17 03:29:57;;;;;;;6.05;2.75;;;;;;;9.87;86.29;100578.81;4968449;28;20029;-81
2022/08/17 03:32:22;;;;;;;11.90;2.55;;;;;;;9.87;86.24;100583.25;5000645;28;20506;-80
2022/08/17 03:34:48;;;;;;;11.32;2.08;;;;;;;9.85;86.55;100585.19;5011627;28;20030;-79
2022/08/17 03:37:14;;;;;;;6.68;2.20;;;;;;;9.85;86.58;100580.75;5016166;28;20041;-80
2022/08/17 03:39:40;;;;;;;7.97;2.30;;;;;;;9.86;86.24;100594.78;4979577;28;20042;-83
2022/08/17 03:42:15;;;;;;;5.43;2.22;;;;;;;9.86;86.37;100592.16;4988509;28;20034;-81
2022/08/17 03:44:41;;;;;;;5.05;1.98;;;;;;;9.86;86.03;100586.88;4995225;28;20034;-82
2022/08/17 03:58:03;;;;;;;7.80;2.40;;;;;;;9.79;86.68;100603.22;5013070;28;20034;-81
2022/08/17 04:00:29;;;;;;;7.45;1.92;;;;;;;9.77;86.59;100596.41;4978717;28;20040;-80
2022/08/17 04:02:55;;;;;;;8.50;2.38;;;;;;;9.77;86.87;100599.91;4995600;28;20431;-79
2022/08/17 04:05:20;;;;;;;10.10;2.25;;;;;;;9.74;87.17;100607.25;4981714;28;20041;-80
2022/08/17 04:07:46;;;;;;;9.88;2.55;;;;;;;9.73;87.17;100601.13;5000612;28;20042;-80
2022/08/17 04:10:12;;;;;;;9.70;2.95;;;;;;;9.73;87.18;100598.47;5023583;28;20025;-81
2022/08/17 04:13:00;;;;;;;7.32;2.47;;;;;;;9.72;86.88;100596.81;4989455;28;20033;-81
2022/08/17 04:15:26;;;;;;;7.72;2.38;;;;;;;9.74;87.12;100597.53;4984145;28;20045;-80
2022/08/17 04:17:52;;;;;;;7.82;2.40;;;;;;;9.75;87.03;100595.69;4960741;28;20380;-81
2022/08/17 04:20:21;;;;;;;8.13;1.98;;;;;;;9.77;87.17;100599.91;4980599;28;20034;-78
2022/08/17 04:23:08;;;;;;;8.50;2.28;;;;;;;9.78;86.65;100590.16;5011893;28;20033;-79
2022/08/17 04:25:36;;;;;;;4.13;2.28;;;;;;;9.75;87.11;100590.44;5002892;28;20029;-79
2022/08/17 04:28:04;;;;;;;7.00;2.05;;;;;;;9.73;87.38;100589.75;5006374;28;20560;-81
2022/08/17 04:30:33;;;;;;;7.45;1.98;;;;;;;9.72;87.33;100591.53;4997550;28;20061;-79
2022/08/17 04:33:04;;;;;;;8.68;2.72;;;;;;;9.74;87.16;100594.88;5014250;28;20450;-81
2022/08/17 04:35:51;;;;;;;6.85;1.98;;;;;;;9.72;87.04;100593.34;4986512;28;20045;-78
2022/08/17 04:38:20;;;;;;;11.18;2.47;;;;;;;9.70;87.51;100588.19;5005376;28;20121;-79
2022/08/17 04:43:32;;;;;;;8.30;2.20;;;;;;;9.67;87.26;100588.47;5005651;28;20021;-80
2022/08/17 04:46:04;;;;;;;16.50;2.40;;;;;;;9.67;87.07;100589.31;5027554;28;20089;-80
2022/08/17 04:48:34;;;;;;;8.18;2.42;;;;;;;9.67;87.04;100594.59;4997693;28;20423;-81
2022/08/17 04:51:00;;;;;;;5.55;1.98;;;;;;;9.66;87.18;100592.94;5012401;28;20034;-81
2022/08/17 04:53:26;;;;;;;7.55;2.40;;;;;;;9.68;86.72;100590.16;5016886;28;20029;-79
2022/08/17 04:55:53;;;;;;;7.78;1.80;;;;;;;9.66;86.58;100581.53;4990895;28;20042;-81
2022/08/17 04:58:19;;;;;;;6.18;2.00;;;;;;;9.65;86.70;100591.25;4980584;28;20030;-81
2022/08/17 05:00:45;;;;;;;10.13;2.38;;;;;;;9.66;86.50;100587.66;4994379;28;20476;-80
2022/08/17 05:03:11;;;;;;;4.80;1.98;;;;;;;9.67;86.12;100589.31;4973716;28;20485;-80
2022/08/17 05:05:41;;;;;;;6.03;1.95;;;;;;;9.70;85.98;100597.94;5004058;28;20456;-79
2022/08/17 05:08:08;;;;;;;9.82;2.25;;;;;;;9.70;85.83;100598.75;5012703;28;20163;-79
2022/08/17 05:10:37;;;;;;;5.82;2.05;;;;;;;9.72;85.42;100598.63;4991902;28;20514;-79
2022/08/17 05:13:14;;;;;;;6.63;2.15;;;;;;;9.75;85.21;100607.09;5009304;28;20043;-79
2022/08/17 05:15:42;;;;;;;9.63;2.58;;;;;;;9.74;85.20;100602.81;5027733;28;20489;-81
2022/08/17 05:18:08;;;;;;;5.15;2.13;;;;;;;9.76;84.94;100608.75;4992576;28;20038;-79
2022/08/17 05:20:35;;;;;;;4.80;1.80;;;;;;;9.79;84.69;100602.41;4977248;28;20057;-79
2022/08/17 05:23:07;;;;;;;5.22;1.73;;;;;;;9.81;84.49;100600.44;4993904;28;20534;-79
2022/08/17 05:25:40;;;;;;;6.93;1.88;;;;;;;9.85;84.19;100607.13;4925236;28;20133;-79
2022/08/17 05:28:07;;;;;;;6.95;1.95;;;;;;;9.87;84.28;100599.94;5035155;28;20046;-79
2022/08/17 05:30:34;;;;;;;8.82;1.77;;;;;;;9.95;83.71;100614.25;4989837;28;20034;-79
2022/08/17 05:33:10;;;;;;;8.13;2.40;;;;;;;9.93;83.67;100604.66;4958811;28;20392;-80
2022/08/17 05:35:41;;;;;;;4.25;1.80;;;;;;;9.91;84.00;100605.75;4992205;28;20435;-80
2022/08/17 05:38:07;;;;;;;8.00;1.88;;;;;;;9.90;83.94;100610.22;5018134;28;20034;-80
2022/08/17 05:40:35;;;;;;;7.35;1.80;;;;;;;9.93;83.91;100606.47;4994373;28;20038;-79
2022/08/17 05:43:05;;;;;;;4.05;1.50;;;;;;;9.99;83.82;100605.06;4991982;28;20042;-79
2022/08/17 05:45:31;;;;;;;6.70;1.90;;;;;;;10.06;83.45;100606.22;4987355;28;20038;-80
2022/08/17 05:47:58;;;;;;;5.88;1.60;;;;;;;10.05;83.66;100602.72;4999792;28;20030;-80
2022/08/17 05:50:40;;;;;;;8.13;2.13;;;;;;;10.10;83.61;100606.75;5011297;28;20504;-84
2022/08/17 05:53:23;;;;;;;4.35;2.30;;;;;;;10.13;83.71;100609.97;4997411;28;20157;-79
2022/08/17 05:56:01;;;;;;;2.95;1.42;;;;;;;10.12;83.21;100613.59;5004329;28;20034;-79
2022/08/17 05:58:55;;;;;;;8.25;2.10;;;;;;;10.17;83.29;100621.09;4987413;28;20041;-80
2022/08/17 06:01:32;;;;;;;7.40;2.15;;;;;;;10.22;83.28;100626.81;4992526;28;20066;-82
2022/08/17 06:04:15;;;;;;;8.82;2.22;;;;;;;10.26;82.89;100628.19;5009214;28;20370;-79
2022/08/17 06:06:47;;;;;;;10.00;2.03;;;;;;;10.34;82.77;100630.13;5018443;28;20038;-79
2022/08/17 06:09:33;;;;;;;7.32;1.73;;;;;;;10.40;82.37;100634.06;5011246;28;20033;-81
2022/08/17 06:12:23;;;;;;;10.25;2.15;;;;;;;10.46;82.83;100640.56;5014410;28;20034;-79
2022/08/17 06:14:58;;;;;;;4.57;2.40;;;;;;;10.51;82.33;100633.91;4990925;28;20034;-81
2022/08/17 06:17:26;;;;;;;7.45;1.80;;;;;;;10.57;82.06;100629.91;5003614;28;20046;-81
2022/08/17 06:19:59;;;;;;;7.75;1.95;;;;;;;10.65;81.55;100631.84;4991514;28;20093;-81
2022/08/17 06:22:40;;;;;;;6.55;1.60;;;;;;;10.69;81.46;100637.69;4996066;28;20034;-80
2022/08/17 06:25:25;;;;;;;6.68;1.98;;;;;;;10.75;81.23;100634.50;5000740;28;20457;-79
2022/08/17 06:28:07;;;;;;;4.53;1.73;;;;;;;10.83;80.34;100625.84;4971672;28;20038;-80
2022/08/17 06:30:47;;;;;;;5.47;2.10;;;;;;;10.90;80.56;100626.94;4959668;28;20040;-79
2022/08/17 06:33:22;;;;;;;5.35;1.50;;;;;;;10.99;80.16;100627.91;4988298;28;20039;-81
2022/08/17 06:36:22;;;;;;;7.75;1.73;;;;;;;11.05;79.60;100632.63;4982973;28;20031;-79
2022/08/17 06:39:09;;;;;;;4.45;1.83;;;;;;;11.11;79.55;100632.06;5010949;28;20053;-81
2022/08/17 06:41:53;;;;;;;7.80;2.63;;;;;;;11.14;79.13;100631.75;4987308;28;20039;-79
2022/08/17 06:44:29;;;;;;;6.55;1.88;;;;;;;11.15;78.40;100641.38;4996416;28;20030;-80
2022/08/17 06:47:36;;;;;;;5.97;1.80;;;;;;;11.14;77.59;100644.16;4995422;28;20030;-79
2022/08/17 06:50:19;;;;;;;6.75;1.63;;;;;;;11.15;77.79;100653.75;4951458;28;20054;-78
2022/08/17 06:53:09;;;;;;;7.88;1.80;;;;;;;11.12;76.86;100651.38;4907577;29;20050;-80
2022/08/17 06:55:45;;;;;;;5.57;1.70;;;;;;;11.06;76.55;100651.97;4964283;28;20034;-79
2022/08/17 06:58:12;;;;;;;6.03;1.80;;;;;;;11.01;76.69;100650.59;5011539;28;20066;-80
2022/08/17 07:00:44;;;;;;;10.02;1.80;;;;;;;10.99;76.99;100657.81;5023770;28;20058;-80
2022/08/17 07:03:19;;;;;;;7.18;1.90;;;;;;;11.01;77.15;100661.16;5012780;28;20076;-80
2022/08/17 07:05:52;;;;;;;5.53;1.63;;;;;;;11.05;77.21;100659.09;5003004;28;20378;-80
2022/08/17 07:08:52;;;;;;;5.50;1.98;;;;;;;11.11;76.92;100653.22;4979464;28;20125;-81
2022/08/17 07:11:45;;;;;;;9.35;2.40;;;;;;;11.27;77.35;100659.72;5027329;28;20043;-79
2022/08/17 07:14:26;;;;;;;6.88;1.63;;;;;;;11.36;76.42;100652.72;4971680;28;20046;-79
2022/08/17 07:16:55;;;;;;;5.50;1.60;;;;;;;11.41;76.79;100647.84;5008163;28;20390;-79
2022/08/17 07:19:30;;;;;;;7.50;1.65;;;;;;;11.43;76.51;100651.19;4996435;28;20030;-81
2022/08/17 07:22:14;;;;;;;6.73;1.53;;;;;;;11.40;76.40;100643.53;4992399;28;20038;-81
2022/08/17 07:24:51;;;;;;;6.10;2.70;;;;;;;11.41;76.32;100651.31;4966362;28;20045;-80
2022/08/17 07:27:26;;;;;;;7.07;2.13;;;;;;;11.45;76.23;100656.31;4995273;28;20512;-80
2022/08/17 07:30:18;;;;;;;3.60;1.65;;;;;;;11.45;75.22;100649.19;4983028;28;20045;-81
2022/08/17 07:32:49;;;;;;;4.70;1.98;;;;;;;11.53;75.83;100654.59;4986707;28;20038;-81
2022/08/17 07:35:28;;;;;;;7.93;1.77;;;;;;;11.65;75.72;100651.78;4960215;28;20043;-80
2022/08/17 07:38:09;;;;;;;4.80;1.75;;;;;;;11.88;75.74;100654.03;4975740;28;20408;-80
2022/08/17 07:40:42;;;;;;;7.80;2.13;;;;;;;12.00;75.12;100654.66;5003652;28;20042;-80
2022/08/17 07:43:16;;;;;;;9.25;1.85;;;;;;;12.09;75.04;100653.00;4968038;28;20038;-81
2022/08/17 07:49:03;;;;;;;11.50;2.00;;;;;;;12.09;75.31;100656.44;5023360;28;20034;-79
2022/08/17 07:51:49;;;;;;;8.13;2.03;;;;;;;12.14;75.37;100656.84;4995562;28;20094;-81
2022/08/17 07:54:20;;;;;;;4.38;1.85;;;;;;;12.22;75.51;100658.75;4979971;28;20058;-80
2022/08/17 07:56:51;;;;;;;6.05;2.00;;;;;;;12.31;75.47;100656.19;5002672;28;20105;-81
2022/08/17 07:59:23;;;;;;;7.03;1.77;;;;;;;12.39;75.80;100661.56;4994427;28;20068;-80
2022/08/17 08:01:55;;;;;;;9.00;1.80;;;;;;;12.43;75.49;100662.06;5008237;28;20112;-81
2022/08/17 08:04:29;;;;;;;6.80;2.00;;;;;;;12.42;75.65;100661.28;4992330;28;20069;-80
2022/08/17 08:07:00;;;;;;;7.45;1.92;;;;;;;12.49;75.62;100658.81;4992672;28;20054;-79
2022/08/17 08:09:31;;;;;;;5.45;1.90;;;;;;;12.52;75.31;100656.72;5003052;28;20041;-81
2022/08/17 08:11:59;;;;;;;6.78;1.92;;;;;;;12.59;75.54;100664.06;5016539;28;20030;-80
2022/08/17 08:14:32;;;;;;;8.48;1.60;;;;;;;12.64;75.35;100653.84;4997659;28;20030;-79
2022/08/17 08:17:04;;;;;;;5.22;1.67;;;;;;;12.71;75.38;100652.22;4995520;28;20444;-81
2022/08/17 08:19:31;;;;;;;7.35;2.03;;;;;;;12.86;75.67;100651.69;4966322;28;20039;-81
2022/08/17 08:22:27;;;;;;;6.68;1.70;;;;;;;13.05;74.82;100652.47;4973697;28;20566;-80
2022/08/17 08:24:56;;;;;;;10.45;2.28;;;;;;;13.15;74.46;100650.56;4991148;28;20097;-80
2022/08/17 08:28:03;;;;;;;9.05;1.70;;;;;;;13.17;73.50;100658.38;4994523;28;20840;-81
2022/08/17 08:30:31;;;;;;;;;;;;;;;13.08;73.86;100655.66;4996737;28;20049;-80
2022/08/17 08:33:24;;;;;;;7.68;2.17;;;;;;;13.20;73.81;100661.53;4969613;28;19960;-82
2022/08/17 08:35:58;;;;;;;7.43;1.92;;;;;;;13.23;73.77;100653.25;4987109;28;20078;-80
2022/08/17 08:38:26;;;;;;;9.30;2.38;;;;;;;13.16;73.91;100652.22;4986217;28;20034;-80
2022/08/17 08:41:29;;;;;;;7.18;2.25;;;;;;;13.17;74.09;100661.81;4924906;28;20046;-77
2022/08/17 08:44:06;;;;;;;6.57;1.90;;;;;;;13.20;74.62;100653.59;4985653;28;20033;-81
2022/08/17 08:47:02;;;;;;;3.50;1.38;;;;;;;13.26;75.27;100658.25;4976909;28;20064;-79
2022/08/17 08:49:44;;;;;;;9.63;2.85;;;;;;;13.32;75.19;100658.59;5014616;28;20065;-79
2022/08/17 08:52:42;;;;;;;5.53;1.70;;;;;;;13.36;74.92;100660.78;4989849;28;20066;-80
2022/08/17 08:55:20;;;;;;;6.38;2.22;;;;;;;13.40;74.95;100656.84;5004708;28;20046;-81
2022/08/17 08:57:54;;;;;;;5.45;1.63;;;;;;;13.45;75.25;100660.84;4982962;28;20037;-79
2022/08/17 09:00:23;;;;;;;7.38;1.75;;;;;;;13.47;74.96;100657.03;4975597;28;20380;-80
2022/08/17 09:03:01;;;;;;;4.53;1.83;;;;;;;13.49;75.46;100657.69;4989055;28;20097;-81
2022/08/17 09:06:06;;;;;;;5.47;1.90;;;;;;;13.56;75.74;100652.63;4993378;28;20129;-80
2022/08/17 09:08:58;;;;;;;4.88;1.45;;;;;;;13.63;75.60;100660.81;4986635;28;20064;-80
2022/08/17 09:11:45;;;;;;;10.88;2.08;;;;;;;13.67;75.57;100659.47;4982765;28;20499;-80
2022/08/17 09:14:30;;;;;;;9.25;3.13;;;;;;;13.75;75.99;100664.00;5022250;28;20167;-80
2022/08/17 09:17:24;;;;;;;4.45;1.80;;;;;;;13.77;75.50;100664.66;5029035;28;20033;-84
2022/08/17 09:19:55;;;;;;;8.07;2.15;;;;;;;13.77;75.31;100664.66;4988010;28;20046;-78
2022/08/17 09:22:34;;;;;;;5.95;2.20;;;;;;;13.79;74.75;100659.19;5011625;28;20528;-79
2022/08/17 09:25:06;;;;;;;5.60;2.10;;;;;;;13.84;74.44;100662.22;5012273;28;20044;-80
2022/08/17 09:27:34;;;;;;;4.18;2.80;;;;;;;13.98;74.29;100658.09;4960701;28;20050;-81
2022/08/17 09:30:08;;;;;;;7.53;4.00;;;;;;;14.08;73.17;100657.97;4977878;28;20403;-79
2022/08/17 09:32:39;;;;;;;7.75;4.38;;;;;;;14.12;72.32;100659.28;5006739;28;20057;-81
2022/08/17 09:35:28;;;;;;;7.88;3.50;;;;;;;14.19;71.72;100665.63;4978779;28;20554;-78
2022/08/17 09:38:29;;;;;;;6.93;2.10;;;;;;;14.32;71.20;100653.66;4984493;28;20042;-80
2022/08/17 09:41:13;;;;;;;5.45;2.33;;;;;;;14.51;70.58;100658.69;4926242;28;20500;-80
2022/08/17 09:44:04;;;;;;;5.43;1.67;;;;;;;14.60;70.54;100656.88;4987785;28;20030;-81
2022/08/17 09:46:36;;;;;;;6.13;1.67;;;;;;;14.73;70.75;100645.72;5027397;28;20053;-82
2022/08/17 09:49:19;;;;;;;4.40;1.35;;;;;;;14.78;69.99;100652.38;4968751;28;20067;-80
2022/08/17 09:51:54;;;;;;;4.45;1.55;;;;;;;14.85;70.49;100658.72;5009819;28;20034;-84
2022/08/17 09:54:33;;;;;;;4.30;1.30;;;;;;;14.96;70.15;100660.19;5007848;28;20117;-82
2022/08/17 09:57:22;;;;;;;6.90;2.25;;;;;;;14.98;69.30;100667.03;4998890;28;20683;-79
2022/08/17 10:00:14;;;;;;;6.55;1.52;;;;;;;15.06;69.58;100666.19;4995877;28;20442;-81
2022/08/17 10:02:50;;;;;;;5.72;1.30;;;;;;;15.21;69.19;100663.66;4988275;28;20037;-81
2022/08/17 10:05:27;;;;;;;4.50;1.45;;;;;;;15.34;69.12;100668.47;4975486;28;20037;-85
2022/08/17 10:08:07;;;;;;;4.25;1.40;;;;;;;15.45;66.09;100669.94;4998019;28;20159;-80
2022/08/17 10:10:41;;;;;;;3.28;1.20;;;;;;;15.43;63.39;100671.91;5009379;28;20391;-80
2022/08/17 10:13:13;;;;;;;5.03;1.13;;;;;;;15.53;65.45;100676.25;5026670;28;20034;-81
2022/08/17 10:15:59;;;;;;;3.97;1.08;;;;;;;15.62;64.65;100681.34;4990899;28;20030;-80
2022/08/17 10:18:34;;;;;;;;;;;;;;;15.65;63.31;100677.53;4990365;28;20108;-81
2022/08/17 10:26:52;;;;;;;3.72;1.10;;;;;;;16.00;61.67;100671.91;5017393;28;20117;-80
2022/08/17 10:29:33;;;;;;;3.97;1.25;;;;;;;16.01;61.40;100680.75;5010998;28;20113;-80
2022/08/17 10:32:07;;;;;;;3.85;1.10;;;;;;;16.06;61.59;100678.38;4993200;28;20030;-80
2022/08/17 10:34:58;;;;;;;5.72;1.00;;;;;;;16.23;60.59;100679.09;4996136;28;20034;-80
2022/08/17 10:37:45;;;;;;;2.40;1.08;;;;;;;16.34;60.36;100684.03;5016591;28;20088;-81
2022/08/17 10:40:33;;;;;;;1.48;1.00;;;;;;;16.31;56.79;100681.72;4990401;28;20026;-81
2022/08/17 10:43:21;;;;;;;3.08;1.20;;;;;;;16.28;56.35;100679.41;4979541;28;20038;-80
2022/08/17 10:46:01;;;;;;;1.85;1.00;;;;;;;16.27;56.18;100677.75;4982320;28;20507;-80
2022/08/17 10:48:31;;;;;;;4.68;1.30;;;;;;;16.40;57.02;100673.69;4984411;28;20492;-81
2022/08/17 10:51:08;;;;;;;2.47;1.10;;;;;;;16.52;55.26;100677.59;4971432;28;20045;-79
2022/08/17 10:53:34;;;;;;;2.05;0.65;;;;;;;16.36;55.67;100670.53;4991658;28;20029;-80
2022/08/17 10:56:38;;;;;;;2.90;1.00;;;;;;;16.48;54.54;100674.44;5010391;28;20064;-81
2022/08/17 10:59:07;;;;;;;1.48;0.90;;;;;;;16.73;55.34;100665.41;4975296;28;20381;-82
2022/08/17 11:01:33;;;;;;;3.25;1.05;;;;;;;16.88;54.78;100672.63;4965590;28;20125;-81
2022/08/17 11:04:40;;;;;;;2.17;0.93;;;;;;;16.93;54.29;100656.91;4985979;28;20053;-80
2022/08/17 11:07:31;;;;;;;2.70;1.15;;;;;;;16.98;54.52;100660.69;4999408;28;20046;-80
2022/08/17 11:10:22;;;;;;;2.22;0.85;;;;;;;16.89;54.00;100669.78;4997685;28;20058;-79
2022/08/17 11:13:26;;;;;;;3.05;1.52;;;;;;;16.89;54.27;100672.47;4994236;28;20037;-81
2022/08/17 11:16:46;;;;;;;2.20;0.80;;;;;;;17.11;54.26;100667.28;4994227;28;20037;-81
2022/08/17 11:19:30;;;;;;;2.58;1.17;;;;;;;17.30;52.66;100671.25;4918971;29;20514;-81
2022/08/17 11:22:28;;;;;;;1.83;1.02;;;;;;;17.50;53.20;100675.22;4983375;28;20048;-80
2022/08/17 11:24:55;;;;;;;2.85;1.10;;;;;;;17.52;53.52;100674.00;4984653;28;20077;-80
2022/08/17 11:27:32;;;;;;;2.70;0.80;;;;;;;17.58;52.73;100681.28;4993877;28;20038;-80
2022/08/17 11:30:12;;;;;;;2.00;0.80;;;;;;;17.67;52.76;100670.50;5007545;28;20041;-80
2022/08/17 11:32:48;;;;;;;2.17;0.98;;;;;;;17.79;52.39;100669.00;4981621;28;20026;-80
2022/08/17 11:35:19;;;;;;;2.30;1.00;;;;;;;17.64;52.61;100673.53;4979351;28;20034;-80
2022/08/17 11:38:04;;;;;;;2.33;0.93;;;;;;;17.72;52.37;100674.28;5014181;28;20029;-81
2022/08/17 11:40:57;;;;;;;3.22;1.00;;;;;;;17.81;52.41;100663.47;4993045;28;20480;-79
2022/08/17 11:43:43;;;;;;;2.88;1.00;;;;;;;17.93;52.31;100661.16;5007590;28;20041;-80
2022/08/17 11:52:36;;;;;;;;;;;;;;;17.98;52.44;100645.38;4989477;28;20089;-80
2022/08/17 11:55:03;;;;;;;6.22;1.20;;;;;;;18.26;52.72;100643.81;4994610;28;19964;-81
2022/08/17 11:57:28;;;;;;;2.97;1.10;;;;;;;18.45;52.63;100639.69;5024411;28;20030;-79
2022/08/17 11:59:54;;;;;;;3.72;0.90;;;;;;;18.50;51.84;100634.59;4993746;28;20042;-79
2022/08/17 12:02:29;;;;;;;3.63;1.00;;;;;;;18.57;51.79;100635.47;4990972;28;20046;-80
2022/08/17 12:05:13;;;;;;;1.45;0.70;;;;;;;18.50;49.28;100642.63;4994489;28;20045;-79
2022/08/17 12:07:50;;;;;;;2.47;0.90;;;;;;;18.31;51.22;100644.94;4977244;28;20039;-80
2022/08/17 12:10:30;;;;;;;4.28;1.15;;;;;;;18.25;52.41;100648.34;4974704;28;20038;-82
2022/08/17 12:12:58;;;;;;;2.72;0.80;;;;;;;18.21;52.42;100642.56;5031180;28;20476;-79
2022/08/17 12:15:39;;;;;;;2.75;0.80;;;;;;;18.22;51.33;100646.06;5008276;28;20034;-80
2022/08/17 12:18:05;;;;;;;2.72;0.75;;;;;;;18.20;52.36;100640.09;4988507;28;20041;-79
2022/08/17 12:20:42;;;;;;;2.97;1.02;;;;;;;18.40;51.73;100634.06;4987120;28;20034;-79
2022/08/17 12:23:38;;;;;;;3.63;0.98;;;;;;;18.55;51.61;100626.81;5019440;28;20103;-80
2022/08/17 12:26:09;;;;;;;3.83;1.05;;;;;;;18.58;51.98;100631.78;4997656;28;20038;-79
2022/08/17 12:28:38;;;;;;;2.13;0.80;;;;;;;18.58;51.89;100631.78;5022761;28;20046;-79
2022/08/17 12:31:16;;;;;;;3.33;0.80;;;;;;;18.51;51.71;100627.38;4998440;28;20026;-79